Latest Weather Observations for Coondewanna

IDW60801

Issued at 8:53 am WST Friday 15 November 2019 (issued every 10 minutes, with the page automatically refreshed every 10 minutes)

About weather observations | Map of weather stations | Latest weather observations for WA | Other Formats
Station Details ID: 505051 Name: COONDEWANNA Lat: -22.96 Lon: 118.81 Height: 697.63 m
Data from the previous 72 hours. | See also: Recent months for locations in Western Australia
Date/Time
WST
Temp
°C
App
Temp
°C
Dew
Point
°C
Rel
Hum
%
Delta-T
°C
Wind Press
QNH
hPa
Press
MSL
hPa
Rain since
9am
mm
Dir  Spd
km/h
Gust
km/h
Spd
kts
Gust
kts
15/08:30am 33.2 23.5 -5.5 8 17.8 E 37 54 20 29 1017.1 1011.6 0.0
15/08:19am 32.4 22.7 -6.0 8 17.4 E 37 57 20 31 1017.0 1011.5 0.0
15/08:00am 32.0 21.5 -6.3 8 17.2 E 41 54 22 29 1017.0 1011.5 0.0
15/07:35am 31.1 21.3 -7.0 8 16.8 E 37 56 20 30 1016.8 1011.3 0.0
15/07:30am 31.4 22.3 -6.8 8 17.0 E 33 46 18 25 1016.9 1011.4 0.0
15/07:00am 30.5 21.7 -5.9 9 16.3 E 32 46 17 25 1016.8 1011.3 0.0
15/06:50am 30.1 22.1 -6.2 9 16.1 E 28 44 15 24 1016.8 1011.3 0.0
15/06:30am 29.5 23.6 -5.3 10 15.6 E 17 24 9 13 1016.8 1011.3 0.0
15/06:24am 28.7 24.7 -5.9 10 15.3 E 7 20 4 11 1016.9 1011.4 0.0
15/06:00am 23.5 19.9 -3.7 16 11.9 ESE 6 9 3 5 1016.8 1011.3 0.0
15/05:30am 24.0 20.3 -3.3 16 12.1 ESE 7 9 4 5 1016.5 1011.0 0.0
15/05:00am 26.4 23.0 -2.3 15 13.3 NE 6 7 3 4 1016.2 1010.7 0.0
15/04:30am 26.8 22.3 -0.3 17 13.0 NNE 13 17 7 9 1016.2 1010.7 0.0
15/04:00am 25.6 22.1 -1.2 17 12.5 NE 7 11 4 6 1015.8 1010.3 0.0
15/03:30am 27.6 24.4 -0.5 16 13.5 ENE 6 7 3 4 1015.5 1010.0 0.0
15/03:00am 28.5 24.7 -0.6 15 14.1 ESE 9 11 5 6 1015.5 1010.0 0.0
15/02:30am 29.0 25.5 -1.2 14 14.5 NNE 7 11 4 6 1015.0 1009.5 0.0
15/02:00am 29.9 26.2 -2.6 12 15.3 WNW 7 13 4 7 1014.8 1009.3 0.0
15/01:30am 29.0 24.7 -4.4 11 15.2 W 9 20 5 11 1014.4 1008.9 0.0
15/01:00am 26.8 21.8 -3.9 13 13.8 WNW 13 17 7 9 1014.5 1009.0 0.0
15/12:30am 25.2 21.5 -4.2 14 13.0 E 6 7 3 4 1014.3 1008.8 0.0
15/12:00am 27.5 23.2 -4.4 12 14.3 E 9 9 5 5 1014.5 1009.0 0.0
 
Date/Time
WST
Temp
°C
App
Temp
°C
Dew
Point
°C
Rel
Hum
%
Delta-T
°C
Wind Press
QNH
hPa
Press
MSL
hPa
Rain since
9am
mm
Dir  Spd
km/h
Gust
km/h
Spd
kts
Gust
kts
14/11:30pm 28.8 24.1 -4.6 11 15.1 E 11 11 6 6 1014.7 1009.2 0.0
14/11:00pm 29.7 25.1 -3.9 11 15.5 ESE 11 13 6 7 1014.9 1009.4 0.0
14/10:30pm 30.4 25.4 -4.6 10 16.0 E 13 15 7 8 1015.2 1009.6 0.0
14/10:00pm 30.7 26.1 -4.4 10 16.1 E 11 13 6 7 1015.3 1009.7 0.0
14/09:30pm 32.0 27.3 -4.8 9 17.0 E 11 13 6 7 1015.3 1009.7 0.0
14/09:00pm 31.9 27.2 -4.9 9 16.9 E 11 13 6 7 1015.0 1009.5 0.0
14/08:30pm 32.4 27.8 -4.5 9 17.2 E 11 11 6 6 1014.9 1009.4 0.0
14/08:00pm 33.3 28.6 -5.4 8 17.9 ESE 11 13 6 7 1014.7 1009.2 0.0
14/07:30pm 33.6 28.9 -5.2 8 18.0 ESE 11 13 6 7 1014.4 1008.9 0.0
14/07:00pm 33.8 29.9 -5.0 8 18.1 S 7 9 4 5 1014.1 1008.5 0.0
14/06:30pm 34.8 30.8 -6.0 7 18.9 WSW 7 11 4 6 1013.8 1008.2 0.0
14/06:00pm 36.1 32.7 -5.1 7 19.5 WNW 4 6 2 3 1013.5 1008.0 0.0
14/05:30pm 36.5 32.8 -4.8 7 19.7 WNW 6 9 3 5 1013.3 1007.8 0.0
14/05:00pm 38.0 34.0 -5.8 6 20.8 NW 7 11 4 6 1013.1 1007.6 0.0
14/04:30pm 37.2 32.2 -4.3 7 20.0 N 13 19 7 10 1013.1 1007.6 0.0
14/04:00pm 37.3 32.9 -6.3 6 20.4 E 9 15 5 8 1013.2 1007.7 0.0
14/03:30pm 37.0 32.7 -4.4 7 19.9 W 9 15 5 8 1013.4 1007.9 0.0
14/03:00pm 36.8 31.8 -4.6 7 19.8 N 13 22 7 12 1013.9 1008.3 0.0
14/02:30pm 36.3 31.2 -5.0 7 19.6 E 13 22 7 12 1014.2 1008.7 0.0
14/02:00pm 38.0 32.3 -3.7 7 20.4 SE 17 37 9 20 1014.5 1009.0 0.0
14/01:30pm 37.0 32.0 -4.4 7 19.9 SE 13 22 7 12 1015.3 1009.7 0.0
14/01:00pm 36.8 31.6 -2.8 8 19.5 NNE 15 24 8 13 1015.8 1010.3 0.0
14/12:30pm 36.4 31.9 -3.1 8 19.3 NNE 11 17 6 9 1016.2 1010.7 0.0
14/12:00pm 36.2 30.6 -3.3 8 19.2 NE 17 32 9 17 1016.5 1011.0 0.0
14/11:30am 35.6 29.7 -2.1 9 18.6 ESE 19 32 10 17 1017.0 1011.5 0.0
14/11:00am 35.8 30.3 -2.0 9 18.7 E 17 30 9 16 1017.4 1011.9 0.0
14/10:30am 34.9 29.0 -2.6 9 18.3 E 19 30 10 16 1017.8 1012.3 0.0
14/10:00am 34.5 28.7 -1.5 10 17.8 E 19 28 10 15 1018.3 1012.8 0.0
14/09:30am 32.6 27.8 -2.9 10 17.0 E 13 24 7 13 1018.8 1013.3 0.0
14/09:00am 32.2 27.9 -2.0 11 16.5 E 11 20 6 11 1019.1 1013.6 -
14/08:30am 31.3 25.7 -2.6 11 16.2 E 17 28 9 15 1019.4 1014.0 -
14/08:00am 30.3 26.3 -2.2 12 15.5 SSE 9 13 5 7 1019.2 1013.7 -
14/07:30am 29.8 25.9 -1.5 13 15.0 SSW 9 17 5 9 1019.1 1013.6 -
14/07:00am 26.4 23.1 -1.4 16 13.0 NW 6 9 3 5 1018.9 1013.4 -
14/06:30am 23.9 21.7 -1.8 18 11.8 CALM 0 0 0 0 1018.7 1013.2 -
14/06:00am 19.8 17.6 -1.9 23 9.6 CALM 0 0 0 0 1018.5 1013.0 -
14/05:30am 19.7 17.3 -3.2 21 9.8 CALM 0 0 0 0 1017.9 1012.4 -
14/05:00am 20.5 17.0 -2.5 21 10.1 NW 6 9 3 5 1017.6 1012.1 -
14/04:30am 19.7 17.4 -2.0 23 9.5 CALM 0 0 0 0 1017.4 1011.9 -
14/04:00am 20.5 18.3 -1.9 22 9.9 CALM 0 0 0 0 1017.2 1011.7 -
14/03:30am 21.1 18.1 -2.0 21 10.3 NW 4 7 2 4 1017.2 1011.7 -
14/03:00am 23.3 19.9 -2.3 18 11.5 NW 6 9 3 5 1017.1 1011.6 0.0
14/02:30am 24.9 21.5 -1.8 17 12.3 NW 6 9 3 5 1017.1 1011.6 -
14/02:00am 26.3 23.7 -1.5 16 13.0 N 2 7 1 4 1017.0 1011.5 -
14/01:30am 27.7 23.3 -2.2 14 14.0 NNE 11 17 6 9 1017.0 1011.5 -
14/01:00am 28.8 23.3 -2.3 13 14.6 ESE 17 26 9 14 1017.0 1011.5 -
14/12:30am 29.4 23.5 -1.9 13 14.9 E 19 26 10 14 1016.8 1011.3 -
14/12:00am 30.0 23.5 -2.5 12 15.4 E 22 30 12 16 1016.9 1011.4 -
 
Date/Time
WST
Temp
°C
App
Temp
°C
Dew
Point
°C
Rel
Hum
%
Delta-T
°C
Wind Press
QNH
hPa
Press
MSL
hPa
Rain since
9am
mm
Dir  Spd
km/h
Gust
km/h
Spd
kts
Gust
kts
13/11:30pm 30.4 22.8 -2.2 12 15.5 E 28 35 15 19 1017.2 1011.7 -
13/11:00pm 30.6 23.0 -2.0 12 15.6 ESE 28 35 15 19 1017.5 1012.0 -
13/10:30pm 31.0 23.5 -1.7 12 15.8 ESE 28 39 15 21 1017.7 1012.2 -
13/10:00pm 31.6 25.6 -1.2 12 16.0 ESE 20 30 11 16 1017.7 1012.2 -
13/09:30pm 31.8 25.9 -2.3 11 16.4 ESE 19 32 10 17 1017.7 1012.2 -
13/09:00pm 32.5 27.4 -1.7 11 16.7 SE 15 20 8 11 1017.6 1012.1 0.0
13/08:30pm 33.3 26.4 -2.4 10 17.3 ENE 24 44 13 24 1017.6 1012.1 -
13/08:00pm 33.5 27.6 -2.3 10 17.4 SE 19 32 10 17 1017.1 1011.6 -
13/07:30pm 33.5 28.4 -2.3 10 17.4 SSE 15 22 8 12 1016.9 1011.4 -
13/07:00pm 33.7 29.7 -2.1 10 17.5 SE 9 9 5 5 1016.2 1010.7 -
13/06:30pm 34.4 29.5 -3.0 9 18.1 E 13 17 7 9 1015.8 1010.3 -
13/06:00pm 34.9 29.7 -2.6 9 18.3 E 15 20 8 11 1015.5 1010.0 -
13/05:30pm 35.2 30.2 -4.0 8 18.8 ENE 13 17 7 9 1015.2 1009.6 -
13/05:00pm 35.6 31.0 -3.7 8 18.9 NNE 11 19 6 10 1015.0 1009.5 -
13/04:30pm 35.8 32.0 -3.5 8 19.0 WSW 7 11 4 6 1014.9 1009.4 -
13/04:00pm 36.1 31.6 -3.3 8 19.2 NNE 11 20 6 11 1015.0 1009.5 -
13/03:30pm 36.4 31.2 -3.1 8 19.3 NE 15 24 8 13 1015.2 1009.6 -
13/03:00pm 36.6 30.6 -3.0 8 19.4 ENE 19 30 10 16 1015.4 1009.8 -
13/02:30pm 36.8 32.0 -2.8 8 19.5 ENE 13 20 7 11 1015.7 1010.2 -
13/02:00pm 35.2 31.2 -2.4 9 18.5 SE 9 17 5 9 1016.1 1010.6 -
13/01:30pm 35.4 31.4 -2.3 9 18.6 ESE 9 20 5 11 1016.7 1011.1 -
13/01:00pm 34.9 30.5 -2.6 9 18.3 SSW 11 28 6 15 1017.2 1011.7 -
13/12:30pm 34.4 29.5 -3.0 9 18.1 ESE 13 24 7 13 1017.5 1012.0 -
13/12:00pm 35.3 29.8 -2.3 9 18.5 ENE 17 30 9 16 1017.8 1012.3 -
13/11:30am 34.0 28.0 -3.3 9 17.9 ESE 19 28 10 15 1018.4 1012.9 0.0
13/11:00am 32.9 26.9 -2.7 10 17.1 SE 19 26 10 14 1018.6 1013.1 0.0
13/10:30am 32.2 26.2 -3.2 10 16.8 E 19 30 10 16 1019.1 1013.6 0.0
13/10:00am 31.5 25.4 -2.5 11 16.2 E 20 30 11 16 1019.4 1014.0 0.0
13/09:30am 30.9 24.7 -3.0 11 16.0 E 20 32 11 17 1019.8 1014.3 0.0
13/09:00am 30.2 24.7 -2.3 12 15.4 E 17 28 9 15 1020.0 1014.5 0.0
13/08:30am 29.2 23.1 -2.0 13 14.8 E 20 30 11 16 1020.2 1014.7 0.0
13/08:00am 28.2 22.2 -1.8 14 14.1 E 20 26 11 14 1020.2 1014.7 0.0
13/07:30am 27.1 21.1 -1.7 15 13.5 ESE 20 28 11 15 1020.1 1014.6 0.0
13/07:00am 26.0 20.0 -1.7 16 12.9 ESE 20 30 11 16 1019.9 1014.4 0.0
13/06:30am 25.5 20.9 -1.3 17 12.5 ESE 13 17 7 9 1019.6 1014.2 0.0
13/06:00am 24.0 20.6 -1.8 18 11.8 ESE 6 9 3 5 1019.4 1014.0 0.0
13/05:30am 23.8 19.5 -1.9 18 11.7 ESE 11 13 6 7 1019.1 1013.6 0.0
13/05:00am 24.9 19.4 -1.8 17 12.3 SE 17 26 9 14 1018.6 1013.1 0.0
13/04:30am 24.9 20.9 -2.6 16 12.5 SE 9 13 5 7 1018.5 1013.0 0.0
13/04:00am 25.4 21.2 -4.0 14 13.0 SSE 9 15 5 8 1018.4 1012.9 0.0
13/03:30am 25.9 21.7 -3.6 14 13.3 SSW 9 15 5 8 1018.0 1012.5 0.0
13/03:00am 25.7 22.1 -3.8 14 13.2 S 6 9 3 5 1017.8 1012.3 0.0
13/02:30am 26.5 22.3 -4.1 13 13.7 E 9 17 5 9 1017.6 1012.1 0.0
13/02:00am 27.4 23.6 -3.4 13 14.0 W 7 17 4 9 1017.2 1011.7 0.0
13/01:30am 27.2 24.0 -0.8 16 13.4 ESE 6 17 3 9 1017.1 1011.6 0.0
13/01:00am 28.2 23.4 2.4 19 13.1 ESE 17 22 9 12 1017.2 1011.7 0.0
13/12:30am 28.7 23.9 2.8 19 13.3 SE 17 20 9 11 1017.3 1011.8 0.0
13/12:00am 29.6 24.3 2.0 17 14.0 ESE 19 26 10 14 1017.7 1012.2 0.0
 
Date/Time
WST
Temp
°C
App
Temp
°C
Dew
Point
°C
Rel
Hum
%
Delta-T
°C
Wind Press
QNH
hPa
Press
MSL
hPa
Rain since
9am
mm
Dir  Spd
km/h
Gust
km/h
Spd
kts
Gust
kts
12/11:30pm 28.5 24.6 1.1 17 13.7 SE 11 17 6 9 1017.6 1012.1 0.0
12/11:00pm 27.5 25.3 1.1 18 13.0 SSE 2 6 1 3 1017.6 1012.1 0.0
12/10:30pm 28.6 25.1 1.2 17 13.7 SSW 9 15 5 8 1017.6 1012.1 0.0
12/10:00pm 27.9 25.0 1.4 18 13.2 SSW 6 7 3 4 1017.5 1012.0 0.0
12/09:30pm 29.4 26.2 1.0 16 14.2 SSW 7 9 4 5 1017.2 1011.7 0.0
12/09:00pm 30.5 27.3 1.0 15 14.8 WSW 7 11 4 6 1017.4 1011.9 0.0
12/08:30pm 31.3 25.8 0.6 14 15.4 SW 19 26 10 14 1016.9 1011.4 0.0
12/08:00pm 31.4 23.3 0.7 14 15.5 WSW 33 54 18 29 1016.5 1011.0 0.0
12/07:57pm 31.3 22.9 1.6 15 15.2 W 35 54 19 29 1016.7 1011.1 0.0
12/07:54pm 31.6 23.5 0.9 14 15.5 W 33 54 18 29 1016.8 1011.3 0.0
12/07:40pm 31.8 23.9 1.0 14 15.6 NNW 32 59 17 32 1017.6 1012.1 0.0
12/07:30pm 31.7 24.5 1.0 14 15.6 N 28 69 15 37 1016.9 1011.4 0.0
12/07:29pm 31.7 25.7 1.0 14 15.6 N 22 63 12 34 1016.5 1011.0 0.0
12/07:00pm 31.9 28.1 -1.0 12 16.2 SSE 9 11 5 6 1015.8 1010.3 0.0
12/06:30pm 32.5 27.8 -1.7 11 16.7 S 13 17 7 9 1015.4 1009.8 0.0
12/06:00pm 33.3 29.1 -1.1 11 17.0 SE 11 20 6 11 1015.0 1009.5 0.0
12/05:30pm 33.9 28.8 -2.0 10 17.6 NE 15 30 8 16 1014.7 1009.2 0.0
12/05:00pm 34.2 28.4 -1.7 10 17.7 SE 19 37 10 20 1014.3 1008.8 0.0
12/04:36pm 33.8 27.9 -2.0 10 17.5 SSW 19 46 10 25 1014.0 1008.4 0.0
12/04:30pm 34.2 29.5 -1.7 10 17.7 S 13 20 7 11 1014.1 1008.5 0.0
12/04:04pm 33.8 27.9 -2.0 10 17.5 NE 19 52 10 28 1014.3 1008.8 0.0
12/04:00pm 34.1 28.6 -1.8 10 17.7 NE 17 35 9 19 1014.1 1008.5 0.0
12/03:30pm 34.6 29.6 -1.4 10 17.9 SE 15 19 8 10 1013.7 1008.1 0.0
12/03:01pm 32.9 25.9 1.9 14 16.1 NNE 28 48 15 26 1014.1 1008.5 0.0
12/03:00pm 33.3 26.8 0.1 12 16.8 NNE 24 43 13 23 1014.0 1008.4 0.0
12/02:30pm 34.9 29.0 -2.6 9 18.3 SE 19 32 10 17 1013.8 1008.2 0.0
12/02:20pm 34.9 29.3 0.1 11 17.8 E 19 41 10 22 1013.8 1008.2 0.0
12/02:00pm 35.5 30.0 -2.2 9 18.6 ESE 17 26 9 14 1013.9 1008.3 0.0
12/01:30pm 35.5 30.7 -2.2 9 18.6 SSE 13 20 7 11 1014.3 1008.8 0.0
12/01:00pm 35.5 30.4 -2.2 9 18.6 SSE 15 26 8 14 1014.3 1008.8 0.0
12/12:30pm 35.4 31.4 -2.3 9 18.6 SW 9 19 5 10 1014.7 1009.2 0.0
12/12:00pm 35.5 31.1 -2.2 9 18.6 W 11 20 6 11 1014.9 1009.4 0.0
12/11:30am 35.5 30.4 -2.2 9 18.6 N 15 28 8 15 1015.0 1009.5 0.0
12/11:00am 35.5 29.4 -2.2 9 18.6 S 20 32 11 17 1015.4 1009.8 0.0
12/10:30am 34.1 28.6 -1.8 10 17.7 SSE 17 32 9 17 1015.9 1010.4 0.0
12/10:00am 35.0 30.4 -1.1 10 18.1 SSE 13 30 7 16 1016.0 1010.5 0.0
12/09:30am 34.2 28.8 -1.7 10 17.7 SE 17 24 9 13 1016.0 1010.5 0.0
12/09:00am 33.4 28.6 -2.3 10 17.3 ESE 13 19 7 10 1016.3 1010.8 -

Other formats

Comma delimited format used in spreadsheet applications
http://www.bom.gov.au/fwo/IDW60801/IDW60801.99312.axf

JavaScript Object Notation format (JSON) in row-major order
http://www.bom.gov.au/fwo/IDW60801/IDW60801.99312.json

Data quality

Most of these data are generated automatically and are frequently updated. Quality checks on data are not normally performed. It is possible for incorrect values to appear. Refer to information at About Latest Weather Observations and please check the disclaimer before using these data.